sensor_id;sensor_type;location;lat;lon;timestamp;temperature;humidity
9980;DHT22;5030;51.532;6.766;2023-05-07T00:00:00;14.50;99.90
9980;DHT22;5030;51.532;6.766;2023-05-07T00:02:26;14.40;99.90
9980;DHT22;5030;51.532;6.766;2023-05-07T00:04:52;14.50;99.90
9980;DHT22;5030;51.532;6.766;2023-05-07T00:07:18;14.40;99.90
9980;DHT22;5030;51.532;6.766;2023-05-07T00:09:44;14.40;99.90
9980;DHT22;5030;51.532;6.766;2023-05-07T00:12:09;14.30;99.90
9980;DHT22;5030;51.532;6.766;2023-05-07T00:14:35;14.40;99.90
9980;DHT22;5030;51.532;6.766;2023-05-07T00:17:01;14.40;99.90
9980;DHT22;5030;51.532;6.766;2023-05-07T00:19:27;14.40;99.90
9980;DHT22;5030;51.532;6.766;2023-05-07T00:21:52;14.50;99.90
9980;DHT22;5030;51.532;6.766;2023-05-07T00:24:21;14.40;99.90
9980;DHT22;5030;51.532;6.766;2023-05-07T00:26:47;14.40;99.90
9980;DHT22;5030;51.532;6.766;2023-05-07T00:29:13;14.30;99.90
9980;DHT22;5030;51.532;6.766;2023-05-07T00:31:38;14.30;99.90
9980;DHT22;5030;51.532;6.766;2023-05-07T00:34:04;14.20;99.90
9980;DHT22;5030;51.532;6.766;2023-05-07T00:36:29;14.30;99.90
9980;DHT22;5030;51.532;6.766;2023-05-07T00:38:57;14.20;99.90
9980;DHT22;5030;51.532;6.766;2023-05-07T00:41:24;14.20;99.90
9980;DHT22;5030;51.532;6.766;2023-05-07T00:43:50;14.30;99.90
9980;DHT22;5030;51.532;6.766;2023-05-07T00:46:17;14.10;99.90
9980;DHT22;5030;51.532;6.766;2023-05-07T00:48:43;14.10;99.90
9980;DHT22;5030;51.532;6.766;2023-05-07T00:51:10;14.10;99.90
9980;DHT22;5030;51.532;6.766;2023-05-07T00:53:37;14.00;99.90
9980;DHT22;5030;51.532;6.766;2023-05-07T00:56:03;14.10;99.90
9980;DHT22;5030;51.532;6.766;2023-05-07T00:58:28;14.20;99.90
9980;DHT22;5030;51.532;6.766;2023-05-07T01:00:55;14.10;99.90
9980;DHT22;5030;51.532;6.766;2023-05-07T01:03:21;13.90;99.90
9980;DHT22;5030;51.532;6.766;2023-05-07T01:05:48;14.10;99.90
9980;DHT22;5030;51.532;6.766;2023-05-07T01:08:17;14.10;99.90
9980;DHT22;5030;51.532;6.766;2023-05-07T01:10:43;14.00;99.90
9980;DHT22;5030;51.532;6.766;2023-05-07T01:13:10;14.00;99.90
9980;DHT22;5030;51.532;6.766;2023-05-07T01:15:37;14.00;99.90
9980;DHT22;5030;51.532;6.766;2023-05-07T01:18:03;14.00;99.90
9980;DHT22;5030;51.532;6.766;2023-05-07T01:20:29;14.00;99.90
9980;DHT22;5030;51.532;6.766;2023-05-07T01:22:56;14.10;99.90
9980;DHT22;5030;51.532;6.766;2023-05-07T01:25:22;14.10;99.90
9980;DHT22;5030;51.532;6.766;2023-05-07T01:27:48;14.10;99.90
9980;DHT22;5030;51.532;6.766;2023-05-07T01:30:14;14.00;99.90
9980;DHT22;5030;51.532;6.766;2023-05-07T01:32:52;14.00;99.90
9980;DHT22;5030;51.532;6.766;2023-05-07T01:35:20;14.10;99.90
9980;DHT22;5030;51.532;6.766;2023-05-07T01:37:48;14.00;99.90
9980;DHT22;5030;51.532;6.766;2023-05-07T01:40:14;14.00;99.90
9980;DHT22;5030;51.532;6.766;2023-05-07T01:42:42;14.00;99.90
9980;DHT22;5030;51.532;6.766;2023-05-07T01:45:08;14.00;99.90
9980;DHT22;5030;51.532;6.766;2023-05-07T01:47:38;14.10;99.90
9980;DHT22;5030;51.532;6.766;2023-05-07T01:50:08;14.00;99.90
9980;DHT22;5030;51.532;6.766;2023-05-07T01:52:34;13.90;99.90
9980;DHT22;5030;51.532;6.766;2023-05-07T01:55:00;13.90;99.90
9980;DHT22;5030;51.532;6.766;2023-05-07T02:00:02;13.90;99.90
9980;DHT22;5030;51.532;6.766;2023-05-07T02:02:31;13.80;99.90
9980;DHT22;5030;51.532;6.766;2023-05-07T02:04:57;13.90;99.90
9980;DHT22;5030;51.532;6.766;2023-05-07T02:07:22;13.90;99.90
9980;DHT22;5030;51.532;6.766;2023-05-07T02:09:48;13.70;99.90
9980;DHT22;5030;51.532;6.766;2023-05-07T02:12:14;13.80;99.90
9980;DHT22;5030;51.532;6.766;2023-05-07T02:14:39;13.80;99.90
9980;DHT22;5030;51.532;6.766;2023-05-07T02:17:05;13.90;99.90
9980;DHT22;5030;51.532;6.766;2023-05-07T02:19:32;13.80;99.90
9980;DHT22;5030;51.532;6.766;2023-05-07T02:21:57;13.80;99.90
9980;DHT22;5030;51.532;6.766;2023-05-07T02:24:23;14.00;99.90
9980;DHT22;5030;51.532;6.766;2023-05-07T02:26:48;13.90;99.90
9980;DHT22;5030;51.532;6.766;2023-05-07T02:29:14;13.80;99.90
9980;DHT22;5030;51.532;6.766;2023-05-07T02:31:40;13.80;99.90
9980;DHT22;5030;51.532;6.766;2023-05-07T02:34:05;14.00;99.90
9980;DHT22;5030;51.532;6.766;2023-05-07T02:36:31;13.70;99.90
9980;DHT22;5030;51.532;6.766;2023-05-07T02:38:57;13.80;99.90
9980;DHT22;5030;51.532;6.766;2023-05-07T02:41:22;13.60;99.90
9980;DHT22;5030;51.532;6.766;2023-05-07T02:43:48;13.60;99.90
9980;DHT22;5030;51.532;6.766;2023-05-07T02:46:13;13.80;99.90
9980;DHT22;5030;51.532;6.766;2023-05-07T02:48:39;13.70;99.90
9980;DHT22;5030;51.532;6.766;2023-05-07T02:51:05;13.60;99.90
9980;DHT22;5030;51.532;6.766;2023-05-07T02:53:31;13.70;99.90
9980;DHT22;5030;51.532;6.766;2023-05-07T02:55:58;13.90;99.90
9980;DHT22;5030;51.532;6.766;2023-05-07T02:58:24;13.60;99.90
9980;DHT22;5030;51.532;6.766;2023-05-07T03:00:50;13.50;99.90
9980;DHT22;5030;51.532;6.766;2023-05-07T03:03:16;13.50;99.90
9980;DHT22;5030;51.532;6.766;2023-05-07T03:05:42;13.50;99.90
9980;DHT22;5030;51.532;6.766;2023-05-07T03:08:08;13.50;99.90
9980;DHT22;5030;51.532;6.766;2023-05-07T03:10:35;13.50;99.90
9980;DHT22;5030;51.532;6.766;2023-05-07T03:13:01;13.50;99.90
9980;DHT22;5030;51.532;6.766;2023-05-07T03:15:27;13.50;99.90
9980;DHT22;5030;51.532;6.766;2023-05-07T03:17:52;13.50;99.90
9980;DHT22;5030;51.532;6.766;2023-05-07T03:20:18;13.50;99.90
9980;DHT22;5030;51.532;6.766;2023-05-07T03:22:43;13.60;99.90
9980;DHT22;5030;51.532;6.766;2023-05-07T03:25:10;13.60;99.90
9980;DHT22;5030;51.532;6.766;2023-05-07T03:27:36;13.50;99.90
9980;DHT22;5030;51.532;6.766;2023-05-07T03:30:01;13.50;99.90
9980;DHT22;5030;51.532;6.766;2023-05-07T03:32:27;13.60;99.90
9980;DHT22;5030;51.532;6.766;2023-05-07T03:34:53;13.40;99.90
9980;DHT22;5030;51.532;6.766;2023-05-07T03:37:18;13.50;99.90
9980;DHT22;5030;51.532;6.766;2023-05-07T03:39:44;13.50;99.90
9980;DHT22;5030;51.532;6.766;2023-05-07T03:42:10;13.50;99.90
9980;DHT22;5030;51.532;6.766;2023-05-07T03:44:36;13.50;99.90
9980;DHT22;5030;51.532;6.766;2023-05-07T03:47:02;13.50;99.90
9980;DHT22;5030;51.532;6.766;2023-05-07T03:49:28;13.70;99.90
9980;DHT22;5030;51.532;6.766;2023-05-07T03:51:53;13.50;99.90
9980;DHT22;5030;51.532;6.766;2023-05-07T03:54:19;13.50;99.90
9980;DHT22;5030;51.532;6.766;2023-05-07T03:56:45;13.50;99.90
9980;DHT22;5030;51.532;6.766;2023-05-07T03:59:12;13.50;99.90
9980;DHT22;5030;51.532;6.766;2023-05-07T04:01:38;13.40;99.90
9980;DHT22;5030;51.532;6.766;2023-05-07T04:04:04;13.50;99.90
9980;DHT22;5030;51.532;6.766;2023-05-07T04:06:30;13.40;99.90
9980;DHT22;5030;51.532;6.766;2023-05-07T04:08:56;13.50;99.90
9980;DHT22;5030;51.532;6.766;2023-05-07T04:11:22;13.40;99.90
9980;DHT22;5030;51.532;6.766;2023-05-07T04:13:48;13.40;99.90
9980;DHT22;5030;51.532;6.766;2023-05-07T04:16:14;13.40;99.90
9980;DHT22;5030;51.532;6.766;2023-05-07T04:18:39;13.50;99.90
9980;DHT22;5030;51.532;6.766;2023-05-07T04:21:05;13.60;99.90
9980;DHT22;5030;51.532;6.766;2023-05-07T04:23:31;13.60;99.90
9980;DHT22;5030;51.532;6.766;2023-05-07T04:25:56;13.50;99.90
9980;DHT22;5030;51.532;6.766;2023-05-07T04:28:23;13.50;99.90
9980;DHT22;5030;51.532;6.766;2023-05-07T04:30:48;13.40;99.90
9980;DHT22;5030;51.532;6.766;2023-05-07T04:33:14;13.40;99.90
9980;DHT22;5030;51.532;6.766;2023-05-07T04:35:43;13.50;99.90
9980;DHT22;5030;51.532;6.766;2023-05-07T04:38:09;13.60;99.90
9980;DHT22;5030;51.532;6.766;2023-05-07T04:40:35;13.40;99.90
9980;DHT22;5030;51.532;6.766;2023-05-07T04:43:01;13.50;99.90
9980;DHT22;5030;51.532;6.766;2023-05-07T04:45:27;13.50;99.90
9980;DHT22;5030;51.532;6.766;2023-05-07T04:47:53;13.50;99.90
9980;DHT22;5030;51.532;6.766;2023-05-07T04:50:18;13.50;99.90
9980;DHT22;5030;51.532;6.766;2023-05-07T04:52:45;13.40;99.90
9980;DHT22;5030;51.532;6.766;2023-05-07T04:55:11;13.40;99.90
9980;DHT22;5030;51.532;6.766;2023-05-07T04:57:36;13.40;99.90
9980;DHT22;5030;51.532;6.766;2023-05-07T05:00:05;13.40;99.90
9980;DHT22;5030;51.532;6.766;2023-05-07T05:02:33;13.50;99.90
9980;DHT22;5030;51.532;6.766;2023-05-07T05:04:59;13.40;99.90
9980;DHT22;5030;51.532;6.766;2023-05-07T05:07:25;13.40;99.90
9980;DHT22;5030;51.532;6.766;2023-05-07T05:09:50;13.50;99.90
9980;DHT22;5030;51.532;6.766;2023-05-07T05:12:16;13.50;99.90
9980;DHT22;5030;51.532;6.766;2023-05-07T05:14:42;13.50;99.90
9980;DHT22;5030;51.532;6.766;2023-05-07T05:17:08;13.60;99.90
9980;DHT22;5030;51.532;6.766;2023-05-07T05:19:33;13.60;99.90
9980;DHT22;5030;51.532;6.766;2023-05-07T05:21:59;13.70;99.90
9980;DHT22;5030;51.532;6.766;2023-05-07T05:24:26;13.70;99.90
9980;DHT22;5030;51.532;6.766;2023-05-07T05:26:53;13.80;99.90
9980;DHT22;5030;51.532;6.766;2023-05-07T05:29:19;13.90;99.90
9980;DHT22;5030;51.532;6.766;2023-05-07T05:31:44;13.80;99.90
9980;DHT22;5030;51.532;6.766;2023-05-07T05:34:10;13.90;99.90
9980;DHT22;5030;51.532;6.766;2023-05-07T05:36:35;14.00;99.90
9980;DHT22;5030;51.532;6.766;2023-05-07T05:39:01;14.20;99.90
9980;DHT22;5030;51.532;6.766;2023-05-07T05:41:27;14.10;99.90
9980;DHT22;5030;51.532;6.766;2023-05-07T05:43:54;14.30;99.90
9980;DHT22;5030;51.532;6.766;2023-05-07T05:46:19;14.30;99.90
9980;DHT22;5030;51.532;6.766;2023-05-07T05:48:45;14.40;99.90
9980;DHT22;5030;51.532;6.766;2023-05-07T05:51:10;14.50;99.90
9980;DHT22;5030;51.532;6.766;2023-05-07T05:53:36;14.60;99.90
9980;DHT22;5030;51.532;6.766;2023-05-07T05:56:02;14.80;99.90
9980;DHT22;5030;51.532;6.766;2023-05-07T05:58:28;14.90;99.90
9980;DHT22;5030;51.532;6.766;2023-05-07T06:00:54;15.20;99.90
9980;DHT22;5030;51.532;6.766;2023-05-07T06:03:22;15.20;99.90
9980;DHT22;5030;51.532;6.766;2023-05-07T06:05:48;15.50;99.90
9980;DHT22;5030;51.532;6.766;2023-05-07T06:08:14;15.50;99.90
9980;DHT22;5030;51.532;6.766;2023-05-07T06:10:39;15.80;99.90
9980;DHT22;5030;51.532;6.766;2023-05-07T06:13:05;15.90;99.90
9980;DHT22;5030;51.532;6.766;2023-05-07T06:15:31;15.90;99.90
9980;DHT22;5030;51.532;6.766;2023-05-07T06:17:56;16.10;99.90
9980;DHT22;5030;51.532;6.766;2023-05-07T06:20:23;16.20;99.90
9980;DHT22;5030;51.532;6.766;2023-05-07T06:22:48;16.20;99.90
9980;DHT22;5030;51.532;6.766;2023-05-07T06:25:14;16.40;99.90
9980;DHT22;5030;51.532;6.766;2023-05-07T06:27:40;16.40;99.90
9980;DHT22;5030;51.532;6.766;2023-05-07T06:30:06;16.40;99.90
9980;DHT22;5030;51.532;6.766;2023-05-07T06:32:32;16.80;99.90
9980;DHT22;5030;51.532;6.766;2023-05-07T06:34:58;16.70;99.90
9980;DHT22;5030;51.532;6.766;2023-05-07T06:37:24;16.60;99.90
9980;DHT22;5030;51.532;6.766;2023-05-07T06:39:50;16.60;99.90
9980;DHT22;5030;51.532;6.766;2023-05-07T06:42:16;16.70;99.90
9980;DHT22;5030;51.532;6.766;2023-05-07T06:44:42;16.80;99.90
9980;DHT22;5030;51.532;6.766;2023-05-07T06:47:08;17.10;99.90
9980;DHT22;5030;51.532;6.766;2023-05-07T06:49:33;17.40;99.90
9980;DHT22;5030;51.532;6.766;2023-05-07T06:51:59;17.40;99.90
9980;DHT22;5030;51.532;6.766;2023-05-07T06:54:25;17.60;99.90
9980;DHT22;5030;51.532;6.766;2023-05-07T06:56:51;17.50;99.90
9980;DHT22;5030;51.532;6.766;2023-05-07T06:59:16;17.80;99.90
9980;DHT22;5030;51.532;6.766;2023-05-07T07:01:42;17.70;99.90
9980;DHT22;5030;51.532;6.766;2023-05-07T07:04:07;17.90;99.90
9980;DHT22;5030;51.532;6.766;2023-05-07T07:06:33;17.80;99.90
9980;DHT22;5030;51.532;6.766;2023-05-07T07:08:59;17.80;99.90
9980;DHT22;5030;51.532;6.766;2023-05-07T07:11:25;17.70;99.90
9980;DHT22;5030;51.532;6.766;2023-05-07T07:13:51;17.90;99.90
9980;DHT22;5030;51.532;6.766;2023-05-07T07:16:17;18.10;99.90
9980;DHT22;5030;51.532;6.766;2023-05-07T07:18:42;18.10;99.90
9980;DHT22;5030;51.532;6.766;2023-05-07T07:21:08;18.10;99.90
9980;DHT22;5030;51.532;6.766;2023-05-07T07:23:33;18.10;99.90
9980;DHT22;5030;51.532;6.766;2023-05-07T07:25:59;17.90;99.90
9980;DHT22;5030;51.532;6.766;2023-05-07T07:28:25;18.00;99.90
9980;DHT22;5030;51.532;6.766;2023-05-07T07:30:51;18.10;99.90
9980;DHT22;5030;51.532;6.766;2023-05-07T07:33:16;18.30;99.90
9980;DHT22;5030;51.532;6.766;2023-05-07T07:35:42;18.40;99.90
9980;DHT22;5030;51.532;6.766;2023-05-07T07:38:08;18.30;99.90
9980;DHT22;5030;51.532;6.766;2023-05-07T07:40:36;18.30;99.90
9980;DHT22;5030;51.532;6.766;2023-05-07T07:43:02;18.80;99.90
9980;DHT22;5030;51.532;6.766;2023-05-07T07:45:28;18.80;99.90
9980;DHT22;5030;51.532;6.766;2023-05-07T07:47:54;18.90;99.90
9980;DHT22;5030;51.532;6.766;2023-05-07T07:50:20;19.10;99.90
9980;DHT22;5030;51.532;6.766;2023-05-07T07:52:48;19.00;99.90
9980;DHT22;5030;51.532;6.766;2023-05-07T07:55:14;19.00;99.90
9980;DHT22;5030;51.532;6.766;2023-05-07T07:57:43;19.00;99.90
9980;DHT22;5030;51.532;6.766;2023-05-07T08:00:09;19.20;99.90
9980;DHT22;5030;51.532;6.766;2023-05-07T08:02:35;19.50;99.90
9980;DHT22;5030;51.532;6.766;2023-05-07T08:05:00;19.60;99.90
9980;DHT22;5030;51.532;6.766;2023-05-07T08:07:26;19.80;99.90
9980;DHT22;5030;51.532;6.766;2023-05-07T08:09:52;20.00;99.90
9980;DHT22;5030;51.532;6.766;2023-05-07T08:12:18;20.10;99.90
9980;DHT22;5030;51.532;6.766;2023-05-07T08:14:43;20.20;99.90
9980;DHT22;5030;51.532;6.766;2023-05-07T08:17:09;20.30;99.90
9980;DHT22;5030;51.532;6.766;2023-05-07T08:19:35;20.20;99.90
9980;DHT22;5030;51.532;6.766;2023-05-07T08:22:03;20.30;99.90
9980;DHT22;5030;51.532;6.766;2023-05-07T08:24:30;20.50;99.90
9980;DHT22;5030;51.532;6.766;2023-05-07T08:26:55;20.60;99.90
9980;DHT22;5030;51.532;6.766;2023-05-07T08:29:21;20.30;99.90
9980;DHT22;5030;51.532;6.766;2023-05-07T08:31:47;20.10;99.90
9980;DHT22;5030;51.532;6.766;2023-05-07T08:34:12;20.10;99.90
9980;DHT22;5030;51.532;6.766;2023-05-07T08:36:39;20.00;99.90
9980;DHT22;5030;51.532;6.766;2023-05-07T08:39:07;20.30;99.90
9980;DHT22;5030;51.532;6.766;2023-05-07T08:41:32;20.60;99.90
9980;DHT22;5030;51.532;6.766;2023-05-07T08:43:59;20.60;99.90
9980;DHT22;5030;51.532;6.766;2023-05-07T08:46:30;20.50;99.90
9980;DHT22;5030;51.532;6.766;2023-05-07T08:48:56;20.70;99.90
9980;DHT22;5030;51.532;6.766;2023-05-07T08:51:22;20.90;99.90
9980;DHT22;5030;51.532;6.766;2023-05-07T08:53:49;20.70;96.90
9980;DHT22;5030;51.532;6.766;2023-05-07T08:56:16;20.80;99.90
9980;DHT22;5030;51.532;6.766;2023-05-07T08:58:43;20.70;99.90
9980;DHT22;5030;51.532;6.766;2023-05-07T09:01:15;21.00;99.90
9980;DHT22;5030;51.532;6.766;2023-05-07T09:03:44;21.10;96.20
9980;DHT22;5030;51.532;6.766;2023-05-07T09:06:10;21.30;97.70
9980;DHT22;5030;51.532;6.766;2023-05-07T09:08:36;21.60;93.00
9980;DHT22;5030;51.532;6.766;2023-05-07T09:11:02;21.60;92.70
9980;DHT22;5030;51.532;6.766;2023-05-07T09:13:28;21.70;87.60
9980;DHT22;5030;51.532;6.766;2023-05-07T09:15:55;22.00;87.90
9980;DHT22;5030;51.532;6.766;2023-05-07T09:18:20;21.40;95.30
9980;DHT22;5030;51.532;6.766;2023-05-07T09:20:46;21.60;93.10
9980;DHT22;5030;51.532;6.766;2023-05-07T09:23:12;21.50;92.90
9980;DHT22;5030;51.532;6.766;2023-05-07T09:25:38;21.70;96.00
9980;DHT22;5030;51.532;6.766;2023-05-07T09:28:04;21.80;94.30
9980;DHT22;5030;51.532;6.766;2023-05-07T09:30:32;22.10;90.20
9980;DHT22;5030;51.532;6.766;2023-05-07T09:32:59;22.50;86.60
9980;DHT22;5030;51.532;6.766;2023-05-07T09:35:27;22.60;74.60
9980;DHT22;5030;51.532;6.766;2023-05-07T09:37:57;22.20;73.90
9980;DHT22;5030;51.532;6.766;2023-05-07T09:40:28;22.40;73.20
9980;DHT22;5030;51.532;6.766;2023-05-07T09:42:55;22.40;72.40
9980;DHT22;5030;51.532;6.766;2023-05-07T09:45:26;22.50;70.00
9980;DHT22;5030;51.532;6.766;2023-05-07T09:47:55;22.60;57.20
9980;DHT22;5030;51.532;6.766;2023-05-07T09:50:36;22.60;66.50
9980;DHT22;5030;51.532;6.766;2023-05-07T09:53:03;23.00;67.70
9980;DHT22;5030;51.532;6.766;2023-05-07T09:55:29;23.10;54.70
9980;DHT22;5030;51.532;6.766;2023-05-07T10:01:17;22.70;54.10
9980;DHT22;5030;51.532;6.766;2023-05-07T10:03:44;22.40;57.80
9980;DHT22;5030;51.532;6.766;2023-05-07T10:06:12;22.30;61.90
9980;DHT22;5030;51.532;6.766;2023-05-07T10:08:38;22.70;66.30
9980;DHT22;5030;51.532;6.766;2023-05-07T10:11:05;22.90;48.80
9980;DHT22;5030;51.532;6.766;2023-05-07T10:13:35;22.90;45.90
9980;DHT22;5030;51.532;6.766;2023-05-07T10:16:04;22.70;51.00
9980;DHT22;5030;51.532;6.766;2023-05-07T10:18:34;22.80;53.80
9980;DHT22;5030;51.532;6.766;2023-05-07T10:23:28;23.20;42.40
9980;DHT22;5030;51.532;6.766;2023-05-07T10:25:56;23.80;37.50
9980;DHT22;5030;51.532;6.766;2023-05-07T10:28:23;24.10;29.00
9980;DHT22;5030;51.532;6.766;2023-05-07T10:33:37;24.10;19.10
9980;DHT22;5030;51.532;6.766;2023-05-07T10:36:05;24.50;13.50
9980;DHT22;5030;51.532;6.766;2023-05-07T10:38:32;24.00;11.20
9980;DHT22;5030;51.532;6.766;2023-05-07T10:40:57;23.80;18.50
9980;DHT22;5030;51.532;6.766;2023-05-07T10:43:24;23.70;14.70
9980;DHT22;5030;51.532;6.766;2023-05-07T10:46:10;24.00;20.20
9980;DHT22;5030;51.532;6.766;2023-05-07T10:51:29;24.60;1.90
9980;DHT22;5030;51.532;6.766;2023-05-07T10:56:40;25.00;1.00
9980;DHT22;5030;51.532;6.766;2023-05-07T11:01:56;24.60;1.80
9980;DHT22;5030;51.532;6.766;2023-05-07T11:04:23;25.00;1.00
9980;DHT22;5030;51.532;6.766;2023-05-07T11:15:10;25.10;1.00
9980;DHT22;5030;51.532;6.766;2023-05-07T11:17:55;25.60;1.00
9980;DHT22;5030;51.532;6.766;2023-05-07T11:20:21;25.40;1.00
9980;DHT22;5030;51.532;6.766;2023-05-07T11:23:16;25.00;1.00
9980;DHT22;5030;51.532;6.766;2023-05-07T11:26:05;25.10;1.00
9980;DHT22;5030;51.532;6.766;2023-05-07T11:28:39;25.30;1.00
9980;DHT22;5030;51.532;6.766;2023-05-07T11:31:07;25.90;1.00
9980;DHT22;5030;51.532;6.766;2023-05-07T11:33:34;25.90;1.00
9980;DHT22;5030;51.532;6.766;2023-05-07T11:36:02;25.20;1.00
9980;DHT22;5030;51.532;6.766;2023-05-07T11:38:29;25.80;1.00
9980;DHT22;5030;51.532;6.766;2023-05-07T11:40:59;25.80;1.00
9980;DHT22;5030;51.532;6.766;2023-05-07T11:43:26;26.20;1.00
9980;DHT22;5030;51.532;6.766;2023-05-07T11:45:52;26.30;1.00
9980;DHT22;5030;51.532;6.766;2023-05-07T11:48:18;25.80;1.00
9980;DHT22;5030;51.532;6.766;2023-05-07T11:50:53;25.70;1.00
9980;DHT22;5030;51.532;6.766;2023-05-07T11:53:20;26.10;1.00
9980;DHT22;5030;51.532;6.766;2023-05-07T11:55:55;25.50;1.00
9980;DHT22;5030;51.532;6.766;2023-05-07T11:58:22;24.90;1.00
9980;DHT22;5030;51.532;6.766;2023-05-07T12:00:52;25.10;1.00
9980;DHT22;5030;51.532;6.766;2023-05-07T12:03:19;25.60;1.00
9980;DHT22;5030;51.532;6.766;2023-05-07T12:05:45;25.40;1.00
9980;DHT22;5030;51.532;6.766;2023-05-07T12:08:18;25.30;1.00
9980;DHT22;5030;51.532;6.766;2023-05-07T12:10:45;25.20;1.00
9980;DHT22;5030;51.532;6.766;2023-05-07T12:13:22;24.90;1.00
9980;DHT22;5030;51.532;6.766;2023-05-07T12:15:55;24.70;1.00
9980;DHT22;5030;51.532;6.766;2023-05-07T12:18:22;24.40;1.00
9980;DHT22;5030;51.532;6.766;2023-05-07T12:20:48;24.00;1.00
9980;DHT22;5030;51.532;6.766;2023-05-07T12:23:14;23.70;1.00
9980;DHT22;5030;51.532;6.766;2023-05-07T12:25:42;23.60;1.00
9980;DHT22;5030;51.532;6.766;2023-05-07T12:28:17;24.00;1.00
9980;DHT22;5030;51.532;6.766;2023-05-07T12:30:45;24.00;1.00
9980;DHT22;5030;51.532;6.766;2023-05-07T12:33:11;23.70;1.00
9980;DHT22;5030;51.532;6.766;2023-05-07T12:35:39;23.30;1.00
9980;DHT22;5030;51.532;6.766;2023-05-07T12:38:14;23.20;1.00
9980;DHT22;5030;51.532;6.766;2023-05-07T12:40:48;22.90;1.00
9980;DHT22;5030;51.532;6.766;2023-05-07T12:43:29;22.80;8.70
9980;DHT22;5030;51.532;6.766;2023-05-07T12:45:57;22.60;9.00
9980;DHT22;5030;51.532;6.766;2023-05-07T12:48:23;22.70;7.60
9980;DHT22;5030;51.532;6.766;2023-05-07T12:50:53;22.70;6.90
9980;DHT22;5030;51.532;6.766;2023-05-07T12:53:22;22.40;13.00
9980;DHT22;5030;51.532;6.766;2023-05-07T12:55:50;22.50;7.50
9980;DHT22;5030;51.532;6.766;2023-05-07T12:58:25;22.40;6.90
9980;DHT22;5030;51.532;6.766;2023-05-07T13:00:52;22.30;15.90
9980;DHT22;5030;51.532;6.766;2023-05-07T13:03:26;22.50;14.00
9980;DHT22;5030;51.532;6.766;2023-05-07T13:05:54;22.40;9.50
9980;DHT22;5030;51.532;6.766;2023-05-07T13:08:27;22.50;14.80
9980;DHT22;5030;51.532;6.766;2023-05-07T13:10:53;22.80;11.80
9980;DHT22;5030;51.532;6.766;2023-05-07T13:13:19;22.50;17.70
9980;DHT22;5030;51.532;6.766;2023-05-07T13:15:46;22.60;16.50
9980;DHT22;5030;51.532;6.766;2023-05-07T13:18:12;22.80;14.90
9980;DHT22;5030;51.532;6.766;2023-05-07T13:20:37;22.80;16.60
9980;DHT22;5030;51.532;6.766;2023-05-07T13:23:03;23.10;13.50
9980;DHT22;5030;51.532;6.766;2023-05-07T13:25:30;23.40;16.70
9980;DHT22;5030;51.532;6.766;2023-05-07T13:27:59;23.30;11.40
9980;DHT22;5030;51.532;6.766;2023-05-07T13:30:25;23.30;13.20
9980;DHT22;5030;51.532;6.766;2023-05-07T13:32:51;23.10;13.70
9980;DHT22;5030;51.532;6.766;2023-05-07T13:35:17;23.20;16.30
9980;DHT22;5030;51.532;6.766;2023-05-07T13:37:43;23.00;20.80
9980;DHT22;5030;51.532;6.766;2023-05-07T13:40:09;23.10;20.10
9980;DHT22;5030;51.532;6.766;2023-05-07T13:42:35;23.20;19.60
9980;DHT22;5030;51.532;6.766;2023-05-07T13:45:00;23.20;23.20
9980;DHT22;5030;51.532;6.766;2023-05-07T13:47:28;23.00;22.10
9980;DHT22;5030;51.532;6.766;2023-05-07T13:49:54;22.60;26.10
9980;DHT22;5030;51.532;6.766;2023-05-07T13:52:19;22.40;34.40
9980;DHT22;5030;51.532;6.766;2023-05-07T13:54:46;22.20;40.90
9980;DHT22;5030;51.532;6.766;2023-05-07T13:57:12;21.70;49.70
9980;DHT22;5030;51.532;6.766;2023-05-07T13:59:37;21.60;54.80
9980;DHT22;5030;51.532;6.766;2023-05-07T14:02:03;21.50;59.10
9980;DHT22;5030;51.532;6.766;2023-05-07T14:04:30;21.50;60.20
9980;DHT22;5030;51.532;6.766;2023-05-07T14:06:56;21.30;65.30
9980;DHT22;5030;51.532;6.766;2023-05-07T14:09:22;21.30;65.10
9980;DHT22;5030;51.532;6.766;2023-05-07T14:11:47;21.30;70.60
9980;DHT22;5030;51.532;6.766;2023-05-07T14:14:17;21.40;63.50
9980;DHT22;5030;51.532;6.766;2023-05-07T14:16:43;21.20;69.90
9980;DHT22;5030;51.532;6.766;2023-05-07T14:19:08;21.20;74.20
9980;DHT22;5030;51.532;6.766;2023-05-07T14:21:34;21.10;84.90
9980;DHT22;5030;51.532;6.766;2023-05-07T14:24:00;20.80;88.20
9980;DHT22;5030;51.532;6.766;2023-05-07T14:26:26;20.50;99.90
9980;DHT22;5030;51.532;6.766;2023-05-07T14:28:52;19.60;99.90
9980;DHT22;5030;51.532;6.766;2023-05-07T14:31:20;18.60;99.90
9980;DHT22;5030;51.532;6.766;2023-05-07T14:33:46;18.10;99.90
9980;DHT22;5030;51.532;6.766;2023-05-07T14:36:15;18.00;99.90
9980;DHT22;5030;51.532;6.766;2023-05-07T14:38:41;18.00;99.90
9980;DHT22;5030;51.532;6.766;2023-05-07T14:41:06;17.90;99.90
9980;DHT22;5030;51.532;6.766;2023-05-07T14:43:32;17.90;99.90
9980;DHT22;5030;51.532;6.766;2023-05-07T14:45:57;17.80;99.90
9980;DHT22;5030;51.532;6.766;2023-05-07T14:48:23;17.80;99.90
9980;DHT22;5030;51.532;6.766;2023-05-07T14:50:49;17.70;99.90
9980;DHT22;5030;51.532;6.766;2023-05-07T14:53:15;17.60;99.90
9980;DHT22;5030;51.532;6.766;2023-05-07T14:55:41;17.70;99.90
9980;DHT22;5030;51.532;6.766;2023-05-07T14:58:07;17.70;99.90
9980;DHT22;5030;51.532;6.766;2023-05-07T15:00:33;17.80;99.90
9980;DHT22;5030;51.532;6.766;2023-05-07T15:03:05;18.20;99.90
9980;DHT22;5030;51.532;6.766;2023-05-07T15:05:32;18.20;99.90
9980;DHT22;5030;51.532;6.766;2023-05-07T15:07:58;18.20;99.90
9980;DHT22;5030;51.532;6.766;2023-05-07T15:10:25;18.60;99.90
9980;DHT22;5030;51.532;6.766;2023-05-07T15:12:51;18.80;99.90
9980;DHT22;5030;51.532;6.766;2023-05-07T15:15:16;18.90;99.90
9980;DHT22;5030;51.532;6.766;2023-05-07T15:17:42;18.80;99.90
9980;DHT22;5030;51.532;6.766;2023-05-07T15:20:08;18.70;99.90
9980;DHT22;5030;51.532;6.766;2023-05-07T15:22:34;19.20;99.90
9980;DHT22;5030;51.532;6.766;2023-05-07T15:25:01;19.00;99.90
9980;DHT22;5030;51.532;6.766;2023-05-07T15:27:27;19.10;99.90
9980;DHT22;5030;51.532;6.766;2023-05-07T15:29:53;19.30;99.90
9980;DHT22;5030;51.532;6.766;2023-05-07T15:32:18;19.20;99.90
9980;DHT22;5030;51.532;6.766;2023-05-07T15:34:44;19.00;99.90
9980;DHT22;5030;51.532;6.766;2023-05-07T15:37:10;19.20;99.90
9980;DHT22;5030;51.532;6.766;2023-05-07T15:39:35;18.90;99.90
9980;DHT22;5030;51.532;6.766;2023-05-07T15:42:01;18.80;99.90
9980;DHT22;5030;51.532;6.766;2023-05-07T15:44:28;18.60;99.90
9980;DHT22;5030;51.532;6.766;2023-05-07T15:46:55;18.50;99.90
9980;DHT22;5030;51.532;6.766;2023-05-07T15:49:21;18.30;99.90
9980;DHT22;5030;51.532;6.766;2023-05-07T15:51:47;18.30;99.90
9980;DHT22;5030;51.532;6.766;2023-05-07T15:54:13;18.00;99.90
9980;DHT22;5030;51.532;6.766;2023-05-07T15:56:38;17.90;99.90
9980;DHT22;5030;51.532;6.766;2023-05-07T15:59:05;18.00;99.90
9980;DHT22;5030;51.532;6.766;2023-05-07T16:01:31;18.30;99.90
9980;DHT22;5030;51.532;6.766;2023-05-07T16:03:57;18.60;99.90
9980;DHT22;5030;51.532;6.766;2023-05-07T16:06:23;18.70;99.90
9980;DHT22;5030;51.532;6.766;2023-05-07T16:08:48;18.90;99.90
9980;DHT22;5030;51.532;6.766;2023-05-07T16:11:14;19.00;99.90
9980;DHT22;5030;51.532;6.766;2023-05-07T16:13:40;19.20;99.90
9980;DHT22;5030;51.532;6.766;2023-05-07T16:16:06;19.20;99.90
9980;DHT22;5030;51.532;6.766;2023-05-07T16:18:31;19.20;99.90
9980;DHT22;5030;51.532;6.766;2023-05-07T16:20:57;19.00;99.90
9980;DHT22;5030;51.532;6.766;2023-05-07T16:23:24;19.00;99.90
9980;DHT22;5030;51.532;6.766;2023-05-07T16:25:50;19.00;99.90
9980;DHT22;5030;51.532;6.766;2023-05-07T16:28:16;19.00;99.90